createdAt,value
2023-05-02T00:00:47.152Z,17.67
2023-05-02T00:03:13.791Z,15.57
2023-05-02T00:05:40.746Z,16.02
2023-05-02T00:08:07.114Z,14.20
2023-05-02T00:10:35.172Z,12.25
2023-05-02T00:13:01.480Z,13.32
2023-05-02T00:15:27.945Z,14.93
2023-05-02T00:17:54.364Z,13.20
2023-05-02T00:20:20.873Z,16.50
2023-05-02T00:22:47.212Z,15.25
2023-05-02T00:25:16.183Z,20.17
2023-05-02T00:27:43.944Z,22.55
2023-05-02T00:30:10.524Z,21.35
2023-05-02T00:32:36.979Z,19.88
2023-05-02T00:35:03.592Z,22.02
2023-05-02T00:37:29.904Z,22.15
2023-05-02T00:39:56.237Z,22.30
2023-05-02T00:42:22.815Z,28.25
2023-05-02T00:44:49.304Z,29.00
2023-05-02T00:47:15.850Z,24.02
2023-05-02T00:49:42.186Z,28.60
2023-05-02T00:52:08.910Z,30.77
2023-05-02T00:54:39.160Z,30.75
2023-05-02T00:57:05.793Z,31.03
2023-05-02T00:59:33.525Z,35.75
2023-05-02T01:02:18.134Z,35.97
2023-05-02T01:05:10.305Z,36.35
2023-05-02T01:08:23.761Z,36.78
2023-05-02T01:11:03.650Z,34.03
2023-05-02T01:13:34.768Z,38.15
2023-05-02T01:18:32.808Z,37.05
2023-05-02T01:21:03.000Z,35.38
2023-05-02T01:23:45.990Z,42.38
2023-05-02T01:26:23.281Z,41.72
2023-05-02T01:28:59.601Z,40.75
2023-05-02T01:31:29.021Z,37.42
2023-05-02T01:33:56.617Z,42.20
2023-05-02T01:36:25.602Z,40.53
2023-05-02T01:38:52.916Z,42.10
2023-05-02T01:41:20.839Z,38.28
2023-05-02T01:43:48.037Z,42.88
2023-05-02T01:46:15.467Z,37.40
2023-05-02T01:48:46.482Z,37.15
2023-05-02T01:51:18.598Z,43.33
2023-05-02T01:53:48.074Z,37.58
2023-05-02T01:56:18.567Z,39.55
2023-05-02T01:58:47.528Z,41.25
2023-05-02T02:01:15.263Z,41.80
2023-05-02T02:03:42.814Z,40.55
2023-05-02T02:06:10.504Z,37.50
2023-05-02T02:08:36.955Z,41.25
2023-05-02T02:11:10.615Z,40.80
2023-05-02T02:13:45.141Z,41.40
2023-05-02T02:16:14.065Z,35.42
2023-05-02T02:18:44.779Z,39.05
2023-05-02T02:21:11.838Z,36.97
2023-05-02T02:23:39.677Z,43.85
2023-05-02T02:26:08.189Z,36.80
2023-05-02T02:28:36.006Z,40.03
2023-05-02T02:31:02.361Z,44.50
2023-05-02T02:33:31.117Z,52.25
2023-05-02T02:36:08.434Z,43.42
2023-05-02T02:38:44.400Z,47.47
2023-05-02T02:41:22.273Z,41.45
2023-05-02T02:44:11.046Z,46.58
2023-05-02T02:47:11.393Z,48.05
2023-05-02T02:49:37.707Z,47.17
2023-05-02T02:52:14.256Z,40.00
2023-05-02T02:54:48.731Z,48.50
2023-05-02T02:57:18.952Z,40.40
2023-05-02T02:59:59.861Z,48.97
2023-05-02T03:02:30.791Z,38.78
2023-05-02T03:04:58.238Z,48.40
2023-05-02T03:07:27.830Z,42.03
2023-05-02T03:09:55.002Z,46.85
2023-05-02T03:12:23.906Z,42.92
2023-05-02T03:14:50.996Z,48.60
2023-05-02T03:17:17.770Z,45.30
2023-05-02T03:19:45.135Z,50.60
2023-05-02T03:22:12.291Z,49.45
2023-05-02T03:24:39.706Z,47.60
2023-05-02T03:27:06.226Z,42.72
2023-05-02T03:29:38.763Z,53.20
2023-05-02T03:32:05.772Z,53.70
2023-05-02T03:34:32.847Z,57.35
2023-05-02T03:36:59.566Z,60.63
2023-05-02T03:39:26.100Z,58.45
2023-05-02T03:41:52.615Z,57.70
2023-05-02T03:44:22.258Z,73.13
2023-05-02T03:46:48.786Z,88.32
2023-05-02T03:49:15.417Z,91.43
2023-05-02T03:51:44.553Z,88.70
2023-05-02T03:54:11.984Z,97.03
2023-05-02T03:56:42.744Z,104.90
2023-05-02T03:59:19.578Z,95.95
2023-05-02T04:01:50.353Z,97.45
2023-05-02T04:04:17.982Z,96.00
2023-05-02T04:06:49.205Z,92.15
2023-05-02T04:09:16.431Z,93.22
2023-05-02T04:11:49.694Z,107.53
2023-05-02T04:14:16.042Z,103.07
2023-05-02T04:16:51.352Z,101.53
2023-05-02T04:19:23.974Z,106.45
2023-05-02T04:21:50.313Z,98.85
2023-05-02T04:24:17.467Z,96.80
2023-05-02T04:26:44.688Z,105.32
2023-05-02T04:29:13.452Z,102.53
2023-05-02T04:31:41.009Z,108.30
2023-05-02T04:34:07.613Z,115.85
2023-05-02T04:36:40.287Z,114.18
2023-05-02T04:39:10.610Z,117.60
2023-05-02T04:41:40.774Z,113.05
2023-05-02T04:44:07.315Z,106.60
2023-05-02T04:46:34.867Z,111.53
2023-05-02T04:49:01.336Z,121.20
2023-05-02T04:51:29.028Z,120.00
2023-05-02T04:53:55.521Z,120.72
2023-05-02T04:56:22.132Z,111.70
2023-05-02T04:58:49.251Z,118.60
2023-05-02T05:01:16.723Z,115.32
2023-05-02T05:03:43.660Z,108.47
2023-05-02T05:06:10.118Z,117.25
2023-05-02T05:08:36.975Z,116.50
2023-05-02T05:11:05.284Z,121.30
2023-05-02T05:13:32.540Z,114.40
2023-05-02T05:15:59.073Z,114.57
2023-05-02T05:18:28.647Z,116.32
2023-05-02T05:20:55.174Z,108.40
2023-05-02T05:23:21.573Z,119.53
2023-05-02T05:25:47.992Z,111.53
2023-05-02T05:28:18.357Z,122.93
2023-05-02T05:30:44.701Z,110.68
2023-05-02T05:33:15.244Z,117.47
2023-05-02T05:35:42.209Z,114.07
2023-05-02T05:38:09.200Z,119.10
2023-05-02T05:40:37.510Z,108.80
2023-05-02T05:43:05.203Z,104.40
2023-05-02T05:45:35.638Z,109.03
2023-05-02T05:48:04.017Z,111.35
2023-05-02T05:50:33.643Z,104.15
2023-05-02T05:53:00.636Z,104.07
2023-05-02T05:55:27.680Z,100.63
2023-05-02T05:57:57.169Z,96.07
2023-05-02T06:00:23.642Z,114.43
2023-05-02T06:02:51.738Z,105.18
2023-05-02T06:05:26.413Z,99.85
2023-05-02T06:07:53.124Z,97.07
2023-05-02T06:10:19.417Z,91.57
2023-05-02T06:12:47.272Z,98.43
2023-05-02T06:15:16.855Z,97.28
2023-05-02T06:17:43.418Z,101.85
2023-05-02T06:20:10.105Z,91.38
2023-05-02T06:22:37.098Z,93.45
2023-05-02T06:25:05.185Z,87.45
2023-05-02T06:27:33.546Z,93.13
2023-05-02T06:30:00.373Z,90.75
2023-05-02T06:32:31.942Z,91.70
2023-05-02T06:34:58.280Z,88.22
2023-05-02T06:37:24.661Z,90.38
2023-05-02T06:39:50.987Z,87.32
2023-05-02T06:42:17.336Z,87.38
2023-05-02T06:44:43.614Z,90.68
2023-05-02T06:47:09.974Z,83.13
2023-05-02T06:49:36.351Z,89.70
2023-05-02T06:52:02.706Z,82.70
2023-05-02T06:54:29.104Z,73.75
2023-05-02T06:56:55.552Z,66.35
2023-05-02T06:59:21.900Z,65.75
2023-05-02T07:01:48.236Z,69.75
2023-05-02T07:04:14.652Z,60.90
2023-05-02T07:06:41.092Z,57.38
2023-05-02T07:09:07.394Z,58.35
2023-05-02T07:11:33.898Z,56.35
2023-05-02T07:14:00.334Z,52.75
2023-05-02T07:16:26.749Z,53.67
2023-05-02T07:18:53.184Z,53.75
2023-05-02T07:21:19.484Z,53.00
2023-05-02T07:23:45.900Z,52.80
2023-05-02T07:26:12.272Z,56.25
2023-05-02T07:28:38.577Z,58.80
2023-05-02T07:31:04.896Z,61.08
2023-05-02T07:33:31.251Z,60.10
2023-05-02T07:35:57.772Z,58.63
2023-05-02T07:38:24.132Z,58.10
2023-05-02T07:40:50.562Z,62.05
2023-05-02T07:43:16.986Z,62.75
2023-05-02T07:45:44.034Z,56.47
2023-05-02T07:48:11.726Z,57.67
2023-05-02T07:50:38.640Z,58.00
2023-05-02T07:53:05.028Z,55.35
2023-05-02T07:55:33.062Z,74.50
2023-05-02T07:58:00.376Z,61.20
2023-05-02T08:00:26.754Z,52.38
2023-05-02T08:02:53.118Z,49.40
2023-05-02T08:05:19.580Z,54.03
2023-05-02T08:07:46.387Z,54.25
2023-05-02T08:10:12.779Z,51.53
2023-05-02T08:12:40.245Z,47.92
2023-05-02T08:15:08.094Z,48.72
2023-05-02T08:17:34.420Z,50.85
2023-05-02T08:20:04.158Z,49.55
2023-05-02T08:22:30.550Z,42.72
2023-05-02T08:24:56.836Z,44.28
2023-05-02T08:27:23.189Z,44.25
2023-05-02T08:29:49.669Z,45.33
2023-05-02T08:32:16.086Z,50.65
2023-05-02T08:34:42.582Z,49.97
2023-05-02T08:37:09.981Z,48.67
2023-05-02T08:39:36.266Z,43.33
2023-05-02T08:42:06.763Z,52.88
2023-05-02T08:44:33.183Z,46.83
2023-05-02T08:47:00.315Z,44.05
2023-05-02T08:49:30.716Z,53.60
2023-05-02T08:51:59.403Z,52.75
2023-05-02T08:54:26.927Z,48.20
2023-05-02T08:56:57.073Z,43.72
2023-05-02T08:59:23.366Z,49.22
2023-05-02T09:01:55.084Z,45.00
2023-05-02T09:04:24.194Z,41.42
2023-05-02T09:06:50.559Z,43.47
2023-05-02T09:09:17.783Z,38.83
2023-05-02T09:11:47.056Z,43.60
2023-05-02T09:14:17.648Z,41.55
2023-05-02T09:16:44.610Z,35.50
2023-05-02T09:19:23.203Z,36.33
2023-05-02T09:21:49.847Z,31.42
2023-05-02T09:24:21.180Z,32.85
2023-05-02T09:27:04.706Z,37.03
2023-05-02T09:29:37.645Z,40.40
2023-05-02T09:32:07.234Z,36.05
2023-05-02T09:34:33.963Z,37.78
2023-05-02T09:37:01.357Z,41.55
2023-05-02T09:39:31.792Z,37.35
2023-05-02T09:41:59.180Z,34.97
2023-05-02T09:44:36.095Z,31.30
2023-05-02T09:47:02.514Z,34.28
2023-05-02T09:49:44.639Z,35.42
2023-05-02T09:52:15.881Z,35.92
2023-05-02T09:54:42.606Z,36.45
2023-05-02T09:57:10.552Z,36.50
2023-05-02T09:59:36.947Z,31.30
2023-05-02T10:02:05.398Z,33.13
2023-05-02T10:04:33.338Z,29.83
2023-05-02T10:07:01.635Z,31.42
2023-05-02T10:09:32.242Z,31.67
2023-05-02T10:12:06.476Z,32.13
2023-05-02T10:14:38.374Z,32.58
2023-05-02T10:17:16.361Z,29.25
2023-05-02T10:19:56.785Z,29.67
2023-05-02T10:22:23.616Z,25.40
2023-05-02T10:24:50.503Z,20.17
2023-05-02T10:27:17.090Z,22.40
2023-05-02T10:29:44.709Z,19.33
2023-05-02T10:32:11.852Z,18.20
2023-05-02T10:34:40.272Z,19.48
2023-05-02T10:37:06.560Z,14.18
2023-05-02T10:39:33.181Z,13.40
2023-05-02T10:42:02.148Z,15.80
2023-05-02T10:44:39.639Z,15.38
2023-05-02T10:47:26.723Z,13.00
2023-05-02T10:50:01.786Z,11.63
2023-05-02T10:52:31.705Z,13.48
2023-05-02T10:55:18.018Z,12.50
2023-05-02T10:57:59.728Z,12.27
2023-05-02T11:00:28.122Z,10.50
2023-05-02T11:02:54.608Z,9.57
2023-05-02T11:05:22.989Z,8.80
2023-05-02T11:07:49.495Z,9.20
2023-05-02T11:10:20.141Z,7.57
2023-05-02T11:12:48.954Z,20.13
2023-05-02T11:15:38.247Z,16.98
2023-05-02T11:18:09.067Z,7.15
2023-05-02T11:20:36.958Z,7.22
2023-05-02T11:23:15.779Z,7.95
2023-05-02T11:25:43.267Z,7.70
2023-05-02T11:28:38.926Z,9.68
2023-05-02T11:31:06.501Z,10.15
2023-05-02T11:33:32.923Z,9.05
2023-05-02T11:35:59.637Z,10.93
2023-05-02T11:38:34.680Z,9.15
2023-05-02T11:41:02.633Z,10.63
2023-05-02T11:43:31.479Z,9.07
2023-05-02T11:45:59.881Z,8.70
2023-05-02T11:48:27.404Z,12.88
2023-05-02T11:50:57.501Z,12.75
2023-05-02T11:53:25.973Z,10.45
2023-05-02T11:55:55.172Z,10.60
2023-05-02T11:58:24.638Z,15.98
2023-05-02T12:00:52.598Z,12.75
2023-05-02T12:03:33.225Z,13.23
2023-05-02T12:06:14.394Z,17.55
2023-05-02T12:08:44.328Z,13.60
2023-05-02T12:11:15.411Z,11.93
2023-05-02T12:16:12.758Z,15.70
2023-05-02T12:18:39.397Z,17.92
2023-05-02T12:21:06.110Z,18.13
2023-05-02T12:23:33.997Z,16.73
2023-05-02T12:26:33.913Z,20.75
2023-05-02T12:29:02.430Z,19.77
2023-05-02T12:31:31.065Z,15.40
2023-05-02T12:33:59.420Z,16.23
2023-05-02T12:36:29.313Z,14.13
2023-05-02T12:38:59.197Z,15.27
2023-05-02T12:41:38.137Z,13.70
2023-05-02T12:44:05.974Z,13.75
2023-05-02T12:46:32.864Z,12.10
2023-05-02T12:49:05.139Z,17.40
2023-05-02T12:51:32.770Z,12.63
2023-05-02T12:53:59.066Z,15.52
2023-05-02T12:56:31.836Z,15.13
2023-05-02T12:59:01.223Z,11.32
2023-05-02T13:01:28.502Z,13.82
2023-05-02T13:03:54.967Z,11.77
2023-05-02T13:06:21.301Z,14.95
2023-05-02T13:08:47.610Z,12.38
2023-05-02T13:11:14.646Z,9.52
2023-05-02T13:13:41.010Z,10.18
2023-05-02T13:16:08.140Z,13.48
2023-05-02T13:18:34.707Z,10.18
2023-05-02T13:21:01.034Z,14.43
2023-05-02T13:23:27.456Z,10.82
2023-05-02T13:25:53.726Z,11.82
2023-05-02T13:28:20.016Z,10.70
2023-05-02T13:30:46.361Z,15.65
2023-05-02T13:33:12.825Z,12.95
2023-05-02T13:35:39.303Z,12.50
2023-05-02T13:38:05.657Z,19.77
2023-05-02T13:40:32.089Z,17.40
2023-05-02T13:42:58.594Z,17.05
2023-05-02T13:45:24.991Z,13.57
2023-05-02T13:47:51.345Z,12.27
2023-05-02T13:50:17.733Z,11.43
2023-05-02T13:52:44.183Z,14.77
2023-05-02T13:55:10.585Z,13.23
2023-05-02T13:57:36.951Z,10.88
2023-05-02T14:00:04.371Z,11.60
2023-05-02T14:02:31.679Z,9.18
2023-05-02T14:04:58.132Z,9.90
2023-05-02T14:07:24.409Z,10.48
2023-05-02T14:09:50.711Z,9.70
2023-05-02T14:12:17.042Z,9.10
2023-05-02T14:14:43.399Z,8.40
2023-05-02T14:17:09.734Z,13.02
2023-05-02T14:19:36.264Z,8.57
2023-05-02T14:22:02.568Z,10.35
2023-05-02T14:24:28.894Z,10.10
2023-05-02T14:26:55.161Z,9.20
2023-05-02T14:29:21.562Z,12.48
2023-05-02T14:31:48.000Z,8.85
2023-05-02T14:34:14.378Z,12.18
2023-05-02T14:36:40.809Z,13.52
2023-05-02T14:39:07.202Z,9.05
2023-05-02T14:41:33.512Z,7.57
2023-05-02T14:43:59.847Z,10.52
2023-05-02T14:46:26.234Z,8.07
2023-05-02T14:48:52.733Z,9.55
2023-05-02T14:51:19.064Z,8.40
2023-05-02T14:53:47.792Z,12.48
2023-05-02T14:56:15.856Z,11.23
2023-05-02T14:58:42.182Z,8.77
2023-05-02T15:01:19.389Z,9.52
2023-05-02T15:04:04.532Z,10.52
2023-05-02T15:06:32.984Z,11.40
2023-05-02T15:08:59.430Z,12.02
2023-05-02T15:11:25.830Z,10.43
2023-05-02T15:13:52.354Z,9.73
2023-05-02T15:16:18.752Z,10.35
2023-05-02T15:18:45.307Z,10.43
2023-05-02T15:21:11.889Z,16.80
2023-05-02T15:23:38.190Z,11.02
2023-05-02T15:26:04.693Z,13.10
2023-05-02T15:28:31.185Z,9.50
2023-05-02T15:30:57.515Z,13.60
2023-05-02T15:33:23.876Z,10.07
2023-05-02T15:35:55.449Z,14.52
2023-05-02T15:38:22.122Z,10.27
2023-05-02T15:40:59.271Z,13.93
2023-05-02T15:43:26.586Z,7.63
2023-05-02T15:45:57.701Z,8.43
2023-05-02T15:50:53.146Z,9.38
2023-05-02T15:53:23.345Z,7.03
2023-05-02T15:55:51.104Z,14.55
2023-05-02T15:58:18.306Z,10.43
2023-05-02T16:00:45.295Z,8.88
2023-05-02T16:03:12.238Z,9.45
2023-05-02T16:05:39.064Z,11.35
2023-05-02T16:08:05.873Z,11.25
2023-05-02T16:10:32.267Z,12.10
2023-05-02T16:12:58.730Z,9.20
2023-05-02T16:15:26.229Z,14.23
2023-05-02T16:17:52.670Z,9.57
2023-05-02T16:20:19.417Z,12.95
2023-05-02T16:22:46.796Z,13.27
2023-05-02T16:25:13.857Z,12.38
2023-05-02T16:27:40.836Z,15.55
2023-05-02T16:30:08.528Z,10.05
2023-05-02T16:32:37.234Z,10.00
2023-05-02T16:35:10.507Z,12.38
2023-05-02T16:37:37.007Z,11.60
2023-05-02T16:40:05.432Z,10.88
2023-05-02T16:42:32.449Z,11.95
2023-05-02T16:44:58.815Z,13.00
2023-05-02T16:47:25.238Z,34.17
2023-05-02T16:49:55.557Z,26.25
2023-05-02T16:52:22.201Z,15.48
2023-05-02T16:54:48.872Z,14.70
2023-05-02T16:57:19.765Z,11.13
2023-05-02T16:59:51.071Z,9.30
2023-05-02T17:04:45.278Z,11.27
2023-05-02T17:07:12.240Z,11.05
2023-05-02T17:09:39.535Z,14.15
2023-05-02T17:12:07.290Z,9.75
2023-05-02T17:14:33.732Z,16.27
2023-05-02T17:17:01.240Z,24.52
2023-05-02T17:19:27.741Z,12.95
2023-05-02T17:21:54.222Z,9.07
2023-05-02T17:24:21.068Z,8.45
2023-05-02T17:26:47.477Z,10.93
2023-05-02T17:29:13.876Z,11.50
2023-05-02T17:31:40.680Z,9.73
2023-05-02T17:34:07.233Z,9.05
2023-05-02T17:36:33.767Z,10.48
2023-05-02T17:39:00.107Z,10.57
2023-05-02T17:41:26.801Z,12.93
2023-05-02T17:43:53.150Z,11.27
2023-05-02T17:46:19.514Z,13.57
2023-05-02T17:48:45.905Z,10.48
2023-05-02T17:51:12.516Z,9.35
2023-05-02T17:53:39.270Z,16.83
2023-05-02T17:56:05.927Z,13.68
2023-05-02T17:58:32.705Z,17.67
2023-05-02T18:01:10.864Z,16.73
2023-05-02T18:03:38.576Z,18.20
2023-05-02T18:06:05.278Z,10.50
2023-05-02T18:08:31.714Z,10.50
2023-05-02T18:10:58.983Z,12.63
2023-05-02T18:13:26.135Z,12.00
2023-05-02T18:15:57.019Z,13.30
2023-05-02T18:18:23.783Z,12.23
2023-05-02T18:20:50.271Z,10.43
2023-05-02T18:23:16.944Z,12.32
2023-05-02T18:25:43.878Z,15.25
2023-05-02T18:28:10.218Z,19.08
2023-05-02T18:30:39.951Z,10.43
2023-05-02T18:33:07.470Z,10.43
2023-05-02T18:35:33.869Z,8.20
2023-05-02T18:38:00.235Z,14.10
2023-05-02T18:40:27.071Z,12.68
2023-05-02T18:42:53.409Z,12.82
2023-05-02T18:45:19.769Z,11.65
2023-05-02T18:47:46.286Z,14.30
2023-05-02T18:50:12.790Z,13.35
2023-05-02T18:52:39.160Z,11.20
2023-05-02T18:55:06.052Z,13.95
2023-05-02T18:57:33.721Z,18.90
2023-05-02T19:00:00.349Z,11.95
2023-05-02T19:02:27.151Z,14.02
2023-05-02T19:04:53.572Z,8.98
2023-05-02T19:07:19.998Z,42.97
2023-05-02T19:09:46.344Z,59.28
2023-05-02T19:12:12.655Z,36.17
2023-05-02T19:14:40.106Z,27.98
2023-05-02T19:17:06.591Z,18.75
2023-05-02T19:19:33.081Z,25.80
2023-05-02T19:21:59.526Z,18.88
2023-05-02T19:24:26.244Z,22.45
2023-05-02T19:26:53.150Z,21.40
2023-05-02T19:29:19.527Z,20.80
2023-05-02T19:31:46.189Z,65.03
2023-05-02T19:34:12.613Z,31.30
2023-05-02T19:36:39.018Z,20.70
2023-05-02T19:39:05.557Z,14.73
2023-05-02T19:41:31.922Z,24.38
2023-05-02T19:43:59.764Z,38.63
2023-05-02T19:46:26.320Z,37.22
2023-05-02T19:48:52.742Z,17.95
2023-05-02T19:51:25.036Z,15.85
2023-05-02T19:53:52.583Z,13.02
2023-05-02T19:56:19.900Z,14.40
2023-05-02T19:58:46.540Z,18.27
2023-05-02T20:01:13.573Z,12.00
2023-05-02T20:03:40.061Z,21.45
2023-05-02T20:06:06.506Z,13.82
2023-05-02T20:08:32.829Z,14.32
2023-05-02T20:10:59.160Z,16.42
2023-05-02T20:13:25.538Z,23.48
2023-05-02T20:15:53.161Z,13.73
2023-05-02T20:18:20.231Z,30.98
2023-05-02T20:20:46.587Z,18.77
2023-05-02T20:23:13.277Z,11.85
2023-05-02T20:25:40.565Z,13.38
2023-05-02T20:28:08.894Z,15.88
2023-05-02T20:30:35.503Z,13.60
2023-05-02T20:33:13.927Z,16.90
2023-05-02T20:35:40.925Z,16.20
2023-05-02T20:38:07.362Z,19.52
2023-05-02T20:40:33.830Z,18.33
2023-05-02T20:43:01.732Z,14.23
2023-05-02T20:45:28.251Z,14.85
2023-05-02T20:47:54.591Z,43.35
2023-05-02T20:50:21.089Z,27.85
2023-05-02T20:52:47.401Z,23.30
2023-05-02T20:55:13.686Z,28.27
2023-05-02T20:57:40.004Z,24.30
2023-05-02T21:00:06.875Z,17.75
2023-05-02T21:02:33.584Z,60.83
2023-05-02T21:04:59.964Z,81.57
2023-05-02T21:07:26.440Z,25.10
2023-05-02T21:09:52.783Z,25.83
2023-05-02T21:12:19.391Z,22.33
2023-05-02T21:14:45.719Z,38.45
2023-05-02T21:17:12.020Z,49.88
2023-05-02T21:19:38.339Z,28.58
2023-05-02T21:22:04.666Z,15.90
2023-05-02T21:24:31.185Z,21.25
2023-05-02T21:26:58.505Z,21.88
2023-05-02T21:29:24.831Z,27.42
2023-05-02T21:31:52.661Z,21.77
2023-05-02T21:34:21.067Z,36.65
2023-05-02T21:36:47.406Z,41.58
2023-05-02T21:39:13.752Z,25.67
2023-05-02T21:41:40.122Z,17.00
2023-05-02T21:44:06.472Z,19.55
2023-05-02T21:46:33.047Z,14.60
2023-05-02T21:48:59.425Z,12.65
2023-05-02T21:51:25.751Z,14.95
2023-05-02T21:53:52.803Z,11.20
2023-05-02T21:56:19.115Z,9.40
2023-05-02T21:58:47.613Z,19.15
2023-05-02T22:01:13.952Z,12.88
2023-05-02T22:03:40.734Z,11.30
2023-05-02T22:06:07.149Z,13.32
2023-05-02T22:08:33.516Z,10.13
2023-05-02T22:10:59.941Z,11.38
2023-05-02T22:13:26.820Z,14.45
2023-05-02T22:15:53.145Z,15.20
2023-05-02T22:18:19.511Z,14.88
2023-05-02T22:20:47.100Z,13.68
2023-05-02T22:23:13.545Z,15.68
2023-05-02T22:25:42.101Z,11.50
2023-05-02T22:28:11.286Z,13.77
2023-05-02T22:30:44.635Z,12.60
2023-05-02T22:33:11.918Z,13.57
2023-05-02T22:35:38.432Z,10.70
2023-05-02T22:38:08.833Z,13.02
2023-05-02T22:40:35.616Z,13.30
2023-05-02T22:43:01.968Z,12.93
2023-05-02T22:45:28.387Z,15.93
2023-05-02T22:47:55.165Z,9.75
2023-05-02T22:50:22.101Z,14.23
2023-05-02T22:52:49.404Z,11.80
2023-05-02T22:55:16.369Z,13.00
2023-05-02T22:57:43.384Z,16.27
2023-05-02T23:00:10.881Z,11.15
2023-05-02T23:02:37.433Z,10.57
2023-05-02T23:05:04.442Z,14.23
2023-05-02T23:07:30.818Z,13.20
2023-05-02T23:09:57.139Z,15.20
2023-05-02T23:12:23.600Z,19.45
2023-05-02T23:14:49.909Z,36.55
2023-05-02T23:17:16.258Z,21.30
2023-05-02T23:19:42.573Z,21.60
2023-05-02T23:22:09.003Z,18.88
2023-05-02T23:24:35.473Z,16.58
2023-05-02T23:27:01.805Z,14.68
2023-05-02T23:29:28.466Z,9.25
2023-05-02T23:31:55.427Z,16.90
2023-05-02T23:34:22.127Z,13.52
2023-05-02T23:36:48.739Z,7.97
2023-05-02T23:39:16.112Z,14.32
2023-05-02T23:41:42.528Z,10.02
2023-05-02T23:44:08.889Z,12.50
2023-05-02T23:46:35.217Z,11.30
2023-05-02T23:49:01.720Z,8.07
2023-05-02T23:51:28.376Z,11.30
2023-05-02T23:53:54.947Z,17.38
2023-05-02T23:56:21.384Z,22.98
2023-05-02T23:58:47.743Z,10.57
